Grasten, Denmark
Current Conditions -  °F | °C
As of 7:20 PM on Thursday 30 Oct 2014 (Local Time) from ETGG Reporting Station
Broken Clouds Broken Clouds  
Wind Chill: 41°   Ceiling: 18000
Heat Index: 46°   Visibility: 6mi
Dew Point: 43°   Wind: 10mph
Humidity: 87%   Direction: 140°SE
Pressure: 30.21"   Gusts: NA
Location:  54.92°N, 9.6°E
Report Text: ETGG 301820Z 14009KT 9999 SCT090 BKN180 08/06 Q1023 BLU
Loading
Personal Weather Stations






























Interactive Weather Map
Tropical Storm Tracking
New forecast layout! Learn more

10-Day Weather Forecast

Advertisements
Track Severe Weather on mobile